sensor_id;sensor_type;location;lat;lon;timestamp;temperature;humidity
82183;DHT22;71763;52.220;13.000;2024-03-08T00:02:03;-0.30;52.60
82183;DHT22;71763;52.220;13.000;2024-03-08T00:04:28;-0.40;52.70
82183;DHT22;71763;52.220;13.000;2024-03-08T00:06:54;-0.40;52.70
82183;DHT22;71763;52.220;13.000;2024-03-08T00:09:19;-0.60;52.50
82183;DHT22;71763;52.220;13.000;2024-03-08T00:11:46;-0.60;52.60
82183;DHT22;71763;52.220;13.000;2024-03-08T00:14:12;-0.60;52.60
82183;DHT22;71763;52.220;13.000;2024-03-08T00:16:37;-0.60;52.60
82183;DHT22;71763;52.220;13.000;2024-03-08T00:19:03;-0.60;52.60
82183;DHT22;71763;52.220;13.000;2024-03-08T00:21:29;-0.60;52.70
82183;DHT22;71763;52.220;13.000;2024-03-08T00:23:54;-0.60;52.70
82183;DHT22;71763;52.220;13.000;2024-03-08T00:26:20;-0.60;52.70
82183;DHT22;71763;52.220;13.000;2024-03-08T00:28:47;-0.60;52.80
82183;DHT22;71763;52.220;13.000;2024-03-08T00:31:14;-0.70;52.80
82183;DHT22;71763;52.220;13.000;2024-03-08T00:33:39;-0.80;52.70
82183;DHT22;71763;52.220;13.000;2024-03-08T00:36:05;-0.90;52.60
82183;DHT22;71763;52.220;13.000;2024-03-08T00:38:30;-0.80;52.70
82183;DHT22;71763;52.220;13.000;2024-03-08T00:40:56;-0.90;52.70
82183;DHT22;71763;52.220;13.000;2024-03-08T00:43:22;-0.90;52.70
82183;DHT22;71763;52.220;13.000;2024-03-08T00:45:47;-1.00;52.60
82183;DHT22;71763;52.220;13.000;2024-03-08T00:48:13;-0.70;52.90
82183;DHT22;71763;52.220;13.000;2024-03-08T00:50:38;-0.80;52.80
82183;DHT22;71763;52.220;13.000;2024-03-08T00:53:04;-1.00;52.70
82183;DHT22;71763;52.220;13.000;2024-03-08T00:55:30;-0.90;52.70
82183;DHT22;71763;52.220;13.000;2024-03-08T00:57:55;-0.90;52.80
82183;DHT22;71763;52.220;13.000;2024-03-08T01:00:21;-1.00;52.70
82183;DHT22;71763;52.220;13.000;2024-03-08T01:02:46;-0.80;52.80
82183;DHT22;71763;52.220;13.000;2024-03-08T01:05:12;-0.70;52.90
82183;DHT22;71763;52.220;13.000;2024-03-08T01:07:38;-0.70;52.90
82183;DHT22;71763;52.220;13.000;2024-03-08T01:10:04;-0.90;52.90
82183;DHT22;71763;52.220;13.000;2024-03-08T01:12:30;-1.10;52.70
82183;DHT22;71763;52.220;13.000;2024-03-08T01:14:55;-0.90;52.90
82183;DHT22;71763;52.220;13.000;2024-03-08T01:17:21;-0.90;52.90
82183;DHT22;71763;52.220;13.000;2024-03-08T01:19:46;-1.10;52.80
82183;DHT22;71763;52.220;13.000;2024-03-08T01:22:12;-1.00;52.90
82183;DHT22;71763;52.220;13.000;2024-03-08T01:24:38;-0.90;53.00
82183;DHT22;71763;52.220;13.000;2024-03-08T01:27:04;-1.10;52.90
82183;DHT22;71763;52.220;13.000;2024-03-08T01:29:29;-0.90;53.10
82183;DHT22;71763;52.220;13.000;2024-03-08T01:31:58;-1.20;52.80
82183;DHT22;71763;52.220;13.000;2024-03-08T01:34:25;-1.00;53.10
82183;DHT22;71763;52.220;13.000;2024-03-08T01:36:51;-1.20;52.90
82183;DHT22;71763;52.220;13.000;2024-03-08T01:39:16;-0.90;53.20
82183;DHT22;71763;52.220;13.000;2024-03-08T01:41:42;-1.20;53.00
82183;DHT22;71763;52.220;13.000;2024-03-08T01:44:07;-1.30;52.90
82183;DHT22;71763;52.220;13.000;2024-03-08T01:46:34;-1.30;52.90
82183;DHT22;71763;52.220;13.000;2024-03-08T01:49:00;-1.10;53.10
82183;DHT22;71763;52.220;13.000;2024-03-08T01:51:26;-1.30;53.00
82183;DHT22;71763;52.220;13.000;2024-03-08T01:53:53;-1.10;52.50
82183;DHT22;71763;52.220;13.000;2024-03-08T01:56:18;-1.30;52.90
82183;DHT22;71763;52.220;13.000;2024-03-08T01:58:44;-1.10;53.10
82183;DHT22;71763;52.220;13.000;2024-03-08T02:01:10;-1.40;53.10
82183;DHT22;71763;52.220;13.000;2024-03-08T02:03:36;-1.10;53.30
82183;DHT22;71763;52.220;13.000;2024-03-08T02:06:01;-1.20;53.20
82183;DHT22;71763;52.220;13.000;2024-03-08T02:08:27;-1.20;53.30
82183;DHT22;71763;52.220;13.000;2024-03-08T02:10:52;-1.10;53.40
82183;DHT22;71763;52.220;13.000;2024-03-08T02:13:18;-1.10;53.50
82183;DHT22;71763;52.220;13.000;2024-03-08T02:15:51;-1.20;53.40
82183;DHT22;71763;52.220;13.000;2024-03-08T02:18:16;-1.30;53.40
82183;DHT22;71763;52.220;13.000;2024-03-08T02:20:54;-1.40;53.40
82183;DHT22;71763;52.220;13.000;2024-03-08T02:23:20;-1.20;53.60
82183;DHT22;71763;52.220;13.000;2024-03-08T02:25:46;-1.40;53.50
82183;DHT22;71763;52.220;13.000;2024-03-08T02:28:12;-1.50;53.40
82183;DHT22;71763;52.220;13.000;2024-03-08T02:30:38;-1.30;53.60
82183;DHT22;71763;52.220;13.000;2024-03-08T02:33:04;-1.50;53.50
82183;DHT22;71763;52.220;13.000;2024-03-08T02:35:29;-1.40;53.70
82183;DHT22;71763;52.220;13.000;2024-03-08T02:37:55;-1.60;53.60
82183;DHT22;71763;52.220;13.000;2024-03-08T02:40:20;-1.40;53.80
82183;DHT22;71763;52.220;13.000;2024-03-08T02:42:47;-1.50;53.90
82183;DHT22;71763;52.220;13.000;2024-03-08T02:45:13;-1.70;53.70
82183;DHT22;71763;52.220;13.000;2024-03-08T02:47:38;-1.30;54.00
82183;DHT22;71763;52.220;13.000;2024-03-08T02:50:04;-1.70;53.70
82183;DHT22;71763;52.220;13.000;2024-03-08T02:52:33;-1.80;53.70
82183;DHT22;71763;52.220;13.000;2024-03-08T02:54:58;-1.40;54.10
82183;DHT22;71763;52.220;13.000;2024-03-08T02:57:24;-1.50;54.00
82183;DHT22;71763;52.220;13.000;2024-03-08T02:59:49;-1.40;53.40
82183;DHT22;71763;52.220;13.000;2024-03-08T03:02:15;-1.80;53.70
82183;DHT22;71763;52.220;13.000;2024-03-08T03:04:41;-1.40;54.10
82183;DHT22;71763;52.220;13.000;2024-03-08T03:07:07;-1.60;53.90
82183;DHT22;71763;52.220;13.000;2024-03-08T03:09:32;-1.40;54.10
82183;DHT22;71763;52.220;13.000;2024-03-08T03:11:58;-1.60;53.90
82183;DHT22;71763;52.220;13.000;2024-03-08T03:14:24;-1.80;53.70
82183;DHT22;71763;52.220;13.000;2024-03-08T03:16:49;-1.40;54.00
82183;DHT22;71763;52.220;13.000;2024-03-08T03:19:15;-1.80;53.70
82183;DHT22;71763;52.220;13.000;2024-03-08T03:21:40;-1.60;53.90
82183;DHT22;71763;52.220;13.000;2024-03-08T03:24:08;-1.60;53.90
82183;DHT22;71763;52.220;13.000;2024-03-08T03:26:36;-1.50;54.10
82183;DHT22;71763;52.220;13.000;2024-03-08T03:29:07;-1.60;54.70
82183;DHT22;71763;52.220;13.000;2024-03-08T03:31:34;-1.60;54.10
82183;DHT22;71763;52.220;13.000;2024-03-08T03:34:00;-1.80;53.90
82183;DHT22;71763;52.220;13.000;2024-03-08T03:36:28;-1.70;54.10
82183;DHT22;71763;52.220;13.000;2024-03-08T03:38:54;-1.90;53.90
82183;DHT22;71763;52.220;13.000;2024-03-08T03:41:32;-1.80;54.10
82183;DHT22;71763;52.220;13.000;2024-03-08T03:43:59;-1.90;54.00
82183;DHT22;71763;52.220;13.000;2024-03-08T03:46:25;-2.00;53.90
82183;DHT22;71763;52.220;13.000;2024-03-08T03:48:52;-1.90;54.00
82183;DHT22;71763;52.220;13.000;2024-03-08T03:51:18;-2.00;53.90
82183;DHT22;71763;52.220;13.000;2024-03-08T03:53:44;-1.90;54.10
82183;DHT22;71763;52.220;13.000;2024-03-08T03:56:09;-1.90;54.10
82183;DHT22;71763;52.220;13.000;2024-03-08T03:58:36;-2.00;53.90
82183;DHT22;71763;52.220;13.000;2024-03-08T04:01:01;-2.00;53.90
82183;DHT22;71763;52.220;13.000;2024-03-08T04:03:29;-2.00;54.00
82183;DHT22;71763;52.220;13.000;2024-03-08T04:05:54;-1.90;54.10
82183;DHT22;71763;52.220;13.000;2024-03-08T04:08:20;-1.90;54.10
82183;DHT22;71763;52.220;13.000;2024-03-08T04:10:45;-2.00;54.00
82183;DHT22;71763;52.220;13.000;2024-03-08T04:13:11;-2.10;54.00
82183;DHT22;71763;52.220;13.000;2024-03-08T04:15:36;-1.80;54.20
82183;DHT22;71763;52.220;13.000;2024-03-08T04:18:03;-2.00;54.10
82183;DHT22;71763;52.220;13.000;2024-03-08T04:20:29;-2.00;54.10
82183;DHT22;71763;52.220;13.000;2024-03-08T04:22:54;-2.00;54.10
82183;DHT22;71763;52.220;13.000;2024-03-08T04:25:19;-2.00;54.20
82183;DHT22;71763;52.220;13.000;2024-03-08T04:27:45;-2.00;54.20
82183;DHT22;71763;52.220;13.000;2024-03-08T04:30:12;-1.90;54.30
82183;DHT22;71763;52.220;13.000;2024-03-08T04:32:37;-1.90;54.30
82183;DHT22;71763;52.220;13.000;2024-03-08T04:35:03;-2.00;54.40
82183;DHT22;71763;52.220;13.000;2024-03-08T04:37:29;-2.20;54.30
82183;DHT22;71763;52.220;13.000;2024-03-08T04:39:57;-2.10;54.40
82183;DHT22;71763;52.220;13.000;2024-03-08T04:42:23;-2.10;54.50
82183;DHT22;71763;52.220;13.000;2024-03-08T04:44:50;-1.90;54.70
82183;DHT22;71763;52.220;13.000;2024-03-08T04:47:15;-2.20;54.50
82183;DHT22;71763;52.220;13.000;2024-03-08T04:49:43;-2.10;54.60
82183;DHT22;71763;52.220;13.000;2024-03-08T04:52:08;-2.10;54.70
82183;DHT22;71763;52.220;13.000;2024-03-08T04:54:34;-2.30;54.60
82183;DHT22;71763;52.220;13.000;2024-03-08T04:56:59;-2.40;54.50
82183;DHT22;71763;52.220;13.000;2024-03-08T04:59:25;-2.30;54.70
82183;DHT22;71763;52.220;13.000;2024-03-08T05:01:51;-2.30;54.70
82183;DHT22;71763;52.220;13.000;2024-03-08T05:04:17;-2.20;54.90
82183;DHT22;71763;52.220;13.000;2024-03-08T05:06:42;-2.30;54.90
82183;DHT22;71763;52.220;13.000;2024-03-08T05:09:08;-2.40;54.80
82183;DHT22;71763;52.220;13.000;2024-03-08T05:11:41;-2.40;54.80
82183;DHT22;71763;52.220;13.000;2024-03-08T05:14:08;-2.40;54.80
82183;DHT22;71763;52.220;13.000;2024-03-08T05:16:33;-2.40;54.80
82183;DHT22;71763;52.220;13.000;2024-03-08T05:18:59;-2.30;54.90
82183;DHT22;71763;52.220;13.000;2024-03-08T05:21:24;-2.30;54.90
82183;DHT22;71763;52.220;13.000;2024-03-08T05:23:50;-2.30;54.70
82183;DHT22;71763;52.220;13.000;2024-03-08T05:26:16;-2.30;54.60
82183;DHT22;71763;52.220;13.000;2024-03-08T05:28:41;-2.20;54.60
82183;DHT22;71763;52.220;13.000;2024-03-08T05:31:07;-2.40;54.50
82183;DHT22;71763;52.220;13.000;2024-03-08T05:33:32;-2.10;54.70
82183;DHT22;71763;52.220;13.000;2024-03-08T05:36:00;-2.40;54.50
82183;DHT22;71763;52.220;13.000;2024-03-08T05:38:26;-2.10;54.70
82183;DHT22;71763;52.220;13.000;2024-03-08T05:40:51;-2.30;54.50
82183;DHT22;71763;52.220;13.000;2024-03-08T05:43:17;-2.00;54.70
82183;DHT22;71763;52.220;13.000;2024-03-08T05:45:45;-2.00;54.70
82183;DHT22;71763;52.220;13.000;2024-03-08T05:48:10;-2.10;54.60
82183;DHT22;71763;52.220;13.000;2024-03-08T05:50:38;-2.30;54.40
82183;DHT22;71763;52.220;13.000;2024-03-08T05:53:03;-2.00;54.60
82183;DHT22;71763;52.220;13.000;2024-03-08T05:55:32;-1.90;54.70
82183;DHT22;71763;52.220;13.000;2024-03-08T05:58:00;-2.00;54.60
82183;DHT22;71763;52.220;13.000;2024-03-08T06:00:26;-2.00;54.60
82183;DHT22;71763;52.220;13.000;2024-03-08T06:02:52;-2.10;54.50
82183;DHT22;71763;52.220;13.000;2024-03-08T06:05:17;-1.80;54.60
82183;DHT22;71763;52.220;13.000;2024-03-08T06:07:43;-2.00;54.40
82183;DHT22;71763;52.220;13.000;2024-03-08T06:10:09;-2.00;54.30
82183;DHT22;71763;52.220;13.000;2024-03-08T06:12:35;-1.70;54.50
82183;DHT22;71763;52.220;13.000;2024-03-08T06:15:06;-1.80;54.30
82183;DHT22;71763;52.220;13.000;2024-03-08T06:17:31;-1.60;54.40
82183;DHT22;71763;52.220;13.000;2024-03-08T06:19:56;-1.70;54.30
82183;DHT22;71763;52.220;13.000;2024-03-08T06:22:22;-1.40;54.50
82183;DHT22;71763;52.220;13.000;2024-03-08T06:24:47;-1.20;54.60
82183;DHT22;71763;52.220;13.000;2024-03-08T06:27:13;-1.30;54.40
82183;DHT22;71763;52.220;13.000;2024-03-08T06:29:39;-1.40;54.30
82183;DHT22;71763;52.220;13.000;2024-03-08T06:32:04;-1.00;53.90
82183;DHT22;71763;52.220;13.000;2024-03-08T06:34:32;-1.30;54.20
82183;DHT22;71763;52.220;13.000;2024-03-08T06:36:57;-1.10;54.90
82183;DHT22;71763;52.220;13.000;2024-03-08T06:39:26;-1.10;54.10
82183;DHT22;71763;52.220;13.000;2024-03-08T06:41:51;-1.00;54.10
82183;DHT22;71763;52.220;13.000;2024-03-08T06:44:17;-0.90;53.90
82183;DHT22;71763;52.220;13.000;2024-03-08T06:46:42;-0.80;54.00
82183;DHT22;71763;52.220;13.000;2024-03-08T06:49:08;-0.70;53.90
82183;DHT22;71763;52.220;13.000;2024-03-08T06:51:34;-0.50;54.00
82183;DHT22;71763;52.220;13.000;2024-03-08T06:54:00;-0.50;53.90
82183;DHT22;71763;52.220;13.000;2024-03-08T06:56:25;-0.30;53.90
82183;DHT22;71763;52.220;13.000;2024-03-08T06:58:51;-0.30;53.80
82183;DHT22;71763;52.220;13.000;2024-03-08T07:01:17;-0.20;53.80
82183;DHT22;71763;52.220;13.000;2024-03-08T07:03:42;-0.20;53.70
82183;DHT22;71763;52.220;13.000;2024-03-08T07:06:10;0.00;53.80
82183;DHT22;71763;52.220;13.000;2024-03-08T07:08:35;0.00;53.70
82183;DHT22;71763;52.220;13.000;2024-03-08T07:11:01;0.00;53.60
82183;DHT22;71763;52.220;13.000;2024-03-08T07:13:26;0.20;53.70
82183;DHT22;71763;52.220;13.000;2024-03-08T07:15:53;0.20;53.50
82183;DHT22;71763;52.220;13.000;2024-03-08T07:18:18;0.60;53.80
82183;DHT22;71763;52.220;13.000;2024-03-08T07:20:44;0.40;53.50
82183;DHT22;71763;52.220;13.000;2024-03-08T07:23:09;0.40;53.50
82183;DHT22;71763;52.220;13.000;2024-03-08T07:25:35;0.50;53.50
82183;DHT22;71763;52.220;13.000;2024-03-08T07:28:01;0.60;53.50
82183;DHT22;71763;52.220;13.000;2024-03-08T07:30:27;0.80;53.60
82183;DHT22;71763;52.220;13.000;2024-03-08T07:33:11;0.80;53.50
82183;DHT22;71763;52.220;13.000;2024-03-08T07:35:39;1.10;53.70
82183;DHT22;71763;52.220;13.000;2024-03-08T07:38:06;1.00;53.40
82183;DHT22;71763;52.220;13.000;2024-03-08T07:40:34;1.20;53.50
82183;DHT22;71763;52.220;13.000;2024-03-08T07:43:00;1.20;53.40
82183;DHT22;71763;52.220;13.000;2024-03-08T07:45:25;1.20;53.30
82183;DHT22;71763;52.220;13.000;2024-03-08T07:47:51;1.30;53.30
82183;DHT22;71763;52.220;13.000;2024-03-08T07:50:16;1.50;53.30
82183;DHT22;71763;52.220;13.000;2024-03-08T07:52:42;1.50;53.20
82183;DHT22;71763;52.220;13.000;2024-03-08T07:55:07;1.60;53.20
82183;DHT22;71763;52.220;13.000;2024-03-08T07:57:33;1.70;53.20
82183;DHT22;71763;52.220;13.000;2024-03-08T07:59:58;1.80;53.10
82183;DHT22;71763;52.220;13.000;2024-03-08T08:02:24;2.00;53.20
82183;DHT22;71763;52.220;13.000;2024-03-08T08:04:49;2.10;53.20
82183;DHT22;71763;52.220;13.000;2024-03-08T08:07:15;2.10;53.10
82183;DHT22;71763;52.220;13.000;2024-03-08T08:09:40;2.20;53.10
82183;DHT22;71763;52.220;13.000;2024-03-08T08:12:10;2.30;53.10
82183;DHT22;71763;52.220;13.000;2024-03-08T08:14:37;2.60;53.00
82183;DHT22;71763;52.220;13.000;2024-03-08T08:17:03;2.50;52.80
82183;DHT22;71763;52.220;13.000;2024-03-08T08:19:30;2.60;52.80
82183;DHT22;71763;52.220;13.000;2024-03-08T08:21:57;2.70;52.60
82183;DHT22;71763;52.220;13.000;2024-03-08T08:24:23;2.80;52.50
82183;DHT22;71763;52.220;13.000;2024-03-08T08:26:48;3.00;52.50
82183;DHT22;71763;52.220;13.000;2024-03-08T08:29:14;3.10;52.50
82183;DHT22;71763;52.220;13.000;2024-03-08T08:31:39;3.20;52.40
82183;DHT22;71763;52.220;13.000;2024-03-08T08:34:05;3.30;52.40
82183;DHT22;71763;52.220;13.000;2024-03-08T08:36:32;3.40;52.20
82183;DHT22;71763;52.220;13.000;2024-03-08T08:38:57;3.50;52.10
82183;DHT22;71763;52.220;13.000;2024-03-08T08:41:24;3.60;51.90
82183;DHT22;71763;52.220;13.000;2024-03-08T08:43:50;3.80;52.00
82183;DHT22;71763;52.220;13.000;2024-03-08T08:46:19;3.90;51.90
82183;DHT22;71763;52.220;13.000;2024-03-08T08:48:44;4.10;51.70
82183;DHT22;71763;52.220;13.000;2024-03-08T08:51:12;4.20;51.60
82183;DHT22;71763;52.220;13.000;2024-03-08T08:53:38;4.40;51.60
82183;DHT22;71763;52.220;13.000;2024-03-08T08:56:06;4.50;51.50
82183;DHT22;71763;52.220;13.000;2024-03-08T08:58:33;4.70;51.40
82183;DHT22;71763;52.220;13.000;2024-03-08T09:00:58;5.00;51.20
82183;DHT22;71763;52.220;13.000;2024-03-08T09:03:25;5.20;51.10
82183;DHT22;71763;52.220;13.000;2024-03-08T09:05:52;5.90;51.00
82183;DHT22;71763;52.220;13.000;2024-03-08T09:08:18;7.80;48.70
82183;DHT22;71763;52.220;13.000;2024-03-08T09:10:43;9.70;46.30
82183;DHT22;71763;52.220;13.000;2024-03-08T09:13:08;10.90;42.60
82183;DHT22;71763;52.220;13.000;2024-03-08T09:15:35;11.80;41.30
82183;DHT22;71763;52.220;13.000;2024-03-08T09:18:01;12.50;40.50
82183;DHT22;71763;52.220;13.000;2024-03-08T09:20:27;13.20;39.60
82183;DHT22;71763;52.220;13.000;2024-03-08T09:22:53;13.70;38.70
82183;DHT22;71763;52.220;13.000;2024-03-08T09:25:20;14.10;39.00
82183;DHT22;71763;52.220;13.000;2024-03-08T09:27:45;14.70;39.40
82183;DHT22;71763;52.220;13.000;2024-03-08T09:30:11;15.70;38.00
82183;DHT22;71763;52.220;13.000;2024-03-08T09:32:38;16.60;36.90
82183;DHT22;71763;52.220;13.000;2024-03-08T09:35:03;17.40;36.20
82183;DHT22;71763;52.220;13.000;2024-03-08T09:37:32;18.20;35.00
82183;DHT22;71763;52.220;13.000;2024-03-08T09:39:58;19.00;34.10
82183;DHT22;71763;52.220;13.000;2024-03-08T09:42:24;19.40;33.50
82183;DHT22;71763;52.220;13.000;2024-03-08T09:44:49;19.60;33.20
82183;DHT22;71763;52.220;13.000;2024-03-08T09:47:15;19.70;33.20
82183;DHT22;71763;52.220;13.000;2024-03-08T09:49:41;19.90;33.10
82183;DHT22;71763;52.220;13.000;2024-03-08T09:52:08;20.00;33.10
82183;DHT22;71763;52.220;13.000;2024-03-08T09:54:35;19.80;33.30
82183;DHT22;71763;52.220;13.000;2024-03-08T09:57:01;19.70;33.50
82183;DHT22;71763;52.220;13.000;2024-03-08T09:59:29;19.80;33.70
82183;DHT22;71763;52.220;13.000;2024-03-08T10:01:54;19.90;33.50
82183;DHT22;71763;52.220;13.000;2024-03-08T10:04:24;20.10;32.70
82183;DHT22;71763;52.220;13.000;2024-03-08T10:06:49;20.10;32.70
82183;DHT22;71763;52.220;13.000;2024-03-08T10:09:15;20.00;32.60
82183;DHT22;71763;52.220;13.000;2024-03-08T10:11:41;19.90;33.20
82183;DHT22;71763;52.220;13.000;2024-03-08T10:14:08;20.00;33.50
82183;DHT22;71763;52.220;13.000;2024-03-08T10:16:34;20.10;33.20
82183;DHT22;71763;52.220;13.000;2024-03-08T10:19:00;19.80;33.30
82183;DHT22;71763;52.220;13.000;2024-03-08T10:21:26;19.30;34.30
82183;DHT22;71763;52.220;13.000;2024-03-08T10:23:51;19.10;34.80
82183;DHT22;71763;52.220;13.000;2024-03-08T10:26:17;19.00;35.00
82183;DHT22;71763;52.220;13.000;2024-03-08T10:28:44;18.70;36.20
82183;DHT22;71763;52.220;13.000;2024-03-08T10:31:10;18.60;36.00
82183;DHT22;71763;52.220;13.000;2024-03-08T10:33:36;18.50;36.00
82183;DHT22;71763;52.220;13.000;2024-03-08T10:36:03;18.30;36.70
82183;DHT22;71763;52.220;13.000;2024-03-08T10:38:30;18.00;36.70
82183;DHT22;71763;52.220;13.000;2024-03-08T10:40:57;17.60;37.40
82183;DHT22;71763;52.220;13.000;2024-03-08T10:43:23;17.30;38.80
82183;DHT22;71763;52.220;13.000;2024-03-08T10:45:52;17.10;38.60
82183;DHT22;71763;52.220;13.000;2024-03-08T10:50:48;16.50;39.80
82183;DHT22;71763;52.220;13.000;2024-03-08T10:53:17;15.90;40.60
82183;DHT22;71763;52.220;13.000;2024-03-08T10:55:42;15.60;41.00
82183;DHT22;71763;52.220;13.000;2024-03-08T10:58:09;15.50;40.80
82183;DHT22;71763;52.220;13.000;2024-03-08T11:00:35;15.40;41.30
82183;DHT22;71763;52.220;13.000;2024-03-08T11:03:00;15.20;41.70
82183;DHT22;71763;52.220;13.000;2024-03-08T11:05:36;14.90;42.10
82183;DHT22;71763;52.220;13.000;2024-03-08T11:08:16;14.60;42.70
82183;DHT22;71763;52.220;13.000;2024-03-08T11:10:50;14.40;43.40
82183;DHT22;71763;52.220;13.000;2024-03-08T11:13:33;14.10;43.80
82183;DHT22;71763;52.220;13.000;2024-03-08T11:16:02;14.10;44.10
82183;DHT22;71763;52.220;13.000;2024-03-08T11:18:33;13.80;44.40
82183;DHT22;71763;52.220;13.000;2024-03-08T11:21:03;13.80;44.40
82183;DHT22;71763;52.220;13.000;2024-03-08T11:23:32;13.70;44.40
82183;DHT22;71763;52.220;13.000;2024-03-08T11:25:58;13.70;44.40
82183;DHT22;71763;52.220;13.000;2024-03-08T11:28:24;13.70;44.40
82183;DHT22;71763;52.220;13.000;2024-03-08T11:33:25;13.60;44.30
82183;DHT22;71763;52.220;13.000;2024-03-08T11:35:51;13.70;44.40
82183;DHT22;71763;52.220;13.000;2024-03-08T11:38:17;13.90;44.20
82183;DHT22;71763;52.220;13.000;2024-03-08T11:40:47;13.90;43.80
82183;DHT22;71763;52.220;13.000;2024-03-08T11:43:15;14.10;43.80
82183;DHT22;71763;52.220;13.000;2024-03-08T11:45:41;14.10;43.60
82183;DHT22;71763;52.220;13.000;2024-03-08T11:48:06;14.00;43.80
82183;DHT22;71763;52.220;13.000;2024-03-08T11:50:32;14.00;43.80
82183;DHT22;71763;52.220;13.000;2024-03-08T11:53:02;14.10;43.60
82183;DHT22;71763;52.220;13.000;2024-03-08T11:55:28;14.10;43.50
82183;DHT22;71763;52.220;13.000;2024-03-08T11:58:01;14.10;43.60
82183;DHT22;71763;52.220;13.000;2024-03-08T12:00:26;14.10;43.50
82183;DHT22;71763;52.220;13.000;2024-03-08T12:03:01;14.30;43.40
82183;DHT22;71763;52.220;13.000;2024-03-08T12:05:27;14.50;43.20
82183;DHT22;71763;52.220;13.000;2024-03-08T12:07:56;14.60;42.90
82183;DHT22;71763;52.220;13.000;2024-03-08T12:10:22;14.50;42.80
82183;DHT22;71763;52.220;13.000;2024-03-08T12:12:49;14.20;42.90
82183;DHT22;71763;52.220;13.000;2024-03-08T12:15:15;14.20;43.20
82183;DHT22;71763;52.220;13.000;2024-03-08T12:17:41;14.10;43.20
82183;DHT22;71763;52.220;13.000;2024-03-08T12:20:11;14.20;43.20
82183;DHT22;71763;52.220;13.000;2024-03-08T12:22:40;14.40;43.00
82183;DHT22;71763;52.220;13.000;2024-03-08T12:25:06;14.50;42.60
82183;DHT22;71763;52.220;13.000;2024-03-08T12:27:36;14.30;42.70
82183;DHT22;71763;52.220;13.000;2024-03-08T12:32:54;14.10;43.00
82183;DHT22;71763;52.220;13.000;2024-03-08T12:35:20;14.10;43.10
82183;DHT22;71763;52.220;13.000;2024-03-08T12:37:48;14.00;43.10
82183;DHT22;71763;52.220;13.000;2024-03-08T12:40:14;13.90;43.20
82183;DHT22;71763;52.220;13.000;2024-03-08T12:42:42;13.90;43.30
82183;DHT22;71763;52.220;13.000;2024-03-08T12:45:08;13.80;43.10
82183;DHT22;71763;52.220;13.000;2024-03-08T12:47:35;13.70;43.20
82183;DHT22;71763;52.220;13.000;2024-03-08T12:50:01;13.60;43.30
82183;DHT22;71763;52.220;13.000;2024-03-08T12:52:26;13.60;43.40
82183;DHT22;71763;52.220;13.000;2024-03-08T12:54:52;13.50;43.30
82183;DHT22;71763;52.220;13.000;2024-03-08T12:57:17;13.50;43.50
82183;DHT22;71763;52.220;13.000;2024-03-08T12:59:43;13.50;43.30
82183;DHT22;71763;52.220;13.000;2024-03-08T13:02:08;13.60;43.40
82183;DHT22;71763;52.220;13.000;2024-03-08T13:04:36;13.50;43.10
82183;DHT22;71763;52.220;13.000;2024-03-08T13:07:02;13.50;43.20
82183;DHT22;71763;52.220;13.000;2024-03-08T13:09:27;13.40;43.30
82183;DHT22;71763;52.220;13.000;2024-03-08T13:11:53;13.20;43.30
82183;DHT22;71763;52.220;13.000;2024-03-08T13:14:20;13.10;43.50
82183;DHT22;71763;52.220;13.000;2024-03-08T13:16:46;13.10;43.80
82183;DHT22;71763;52.220;13.000;2024-03-08T13:19:13;13.00;43.70
82183;DHT22;71763;52.220;13.000;2024-03-08T13:21:38;13.00;43.70
82183;DHT22;71763;52.220;13.000;2024-03-08T13:24:04;13.00;43.50
82183;DHT22;71763;52.220;13.000;2024-03-08T13:26:29;12.90;43.50
82183;DHT22;71763;52.220;13.000;2024-03-08T13:28:58;12.70;44.10
82183;DHT22;71763;52.220;13.000;2024-03-08T13:31:23;12.70;43.50
82183;DHT22;71763;52.220;13.000;2024-03-08T13:33:49;12.70;43.50
82183;DHT22;71763;52.220;13.000;2024-03-08T13:36:16;12.60;43.40
82183;DHT22;71763;52.220;13.000;2024-03-08T13:38:42;12.50;43.30
82183;DHT22;71763;52.220;13.000;2024-03-08T13:41:09;12.50;43.30
82183;DHT22;71763;52.220;13.000;2024-03-08T13:43:34;12.50;43.30
82183;DHT22;71763;52.220;13.000;2024-03-08T13:46:02;12.40;43.20
82183;DHT22;71763;52.220;13.000;2024-03-08T13:48:27;12.30;43.20
82183;DHT22;71763;52.220;13.000;2024-03-08T13:50:52;12.30;43.10
82183;DHT22;71763;52.220;13.000;2024-03-08T13:53:18;12.10;42.90
82183;DHT22;71763;52.220;13.000;2024-03-08T13:55:43;12.10;42.90
82183;DHT22;71763;52.220;13.000;2024-03-08T13:58:09;12.00;42.90
82183;DHT22;71763;52.220;13.000;2024-03-08T14:00:35;11.80;42.70
82183;DHT22;71763;52.220;13.000;2024-03-08T14:03:01;11.80;43.40
82183;DHT22;71763;52.220;13.000;2024-03-08T14:05:31;11.70;42.70
82183;DHT22;71763;52.220;13.000;2024-03-08T14:08:03;11.70;42.80
82183;DHT22;71763;52.220;13.000;2024-03-08T14:10:29;11.60;42.90
82183;DHT22;71763;52.220;13.000;2024-03-08T14:12:56;11.50;42.70
82183;DHT22;71763;52.220;13.000;2024-03-08T14:15:22;11.50;42.90
82183;DHT22;71763;52.220;13.000;2024-03-08T14:17:54;11.40;42.90
82183;DHT22;71763;52.220;13.000;2024-03-08T14:20:20;11.30;42.90
82183;DHT22;71763;52.220;13.000;2024-03-08T14:22:51;11.10;43.00
82183;DHT22;71763;52.220;13.000;2024-03-08T14:25:16;11.10;43.10
82183;DHT22;71763;52.220;13.000;2024-03-08T14:27:43;10.90;43.10
82183;DHT22;71763;52.220;13.000;2024-03-08T14:30:09;10.80;43.10
82183;DHT22;71763;52.220;13.000;2024-03-08T14:32:35;10.80;43.20
82183;DHT22;71763;52.220;13.000;2024-03-08T14:35:04;10.70;43.20
82183;DHT22;71763;52.220;13.000;2024-03-08T14:37:29;10.60;43.10
82183;DHT22;71763;52.220;13.000;2024-03-08T14:39:55;10.60;43.20
82183;DHT22;71763;52.220;13.000;2024-03-08T14:42:21;10.50;43.10
82183;DHT22;71763;52.220;13.000;2024-03-08T14:44:48;10.40;43.10
82183;DHT22;71763;52.220;13.000;2024-03-08T14:47:16;10.40;43.10
82183;DHT22;71763;52.220;13.000;2024-03-08T14:49:42;10.40;43.10
82183;DHT22;71763;52.220;13.000;2024-03-08T14:52:07;10.40;43.10
82183;DHT22;71763;52.220;13.000;2024-03-08T14:54:55;10.30;43.00
82183;DHT22;71763;52.220;13.000;2024-03-08T14:57:21;10.40;43.10
82183;DHT22;71763;52.220;13.000;2024-03-08T14:59:50;10.30;43.00
82183;DHT22;71763;52.220;13.000;2024-03-08T15:02:15;10.30;42.90
82183;DHT22;71763;52.220;13.000;2024-03-08T15:04:42;10.20;42.80
82183;DHT22;71763;52.220;13.000;2024-03-08T15:07:08;10.20;42.80
82183;DHT22;71763;52.220;13.000;2024-03-08T15:09:35;10.20;42.80
82183;DHT22;71763;52.220;13.000;2024-03-08T15:12:05;10.20;42.80
82183;DHT22;71763;52.220;13.000;2024-03-08T15:14:31;10.20;42.80
82183;DHT22;71763;52.220;13.000;2024-03-08T15:16:58;10.10;42.70
82183;DHT22;71763;52.220;13.000;2024-03-08T15:19:23;10.10;42.70
82183;DHT22;71763;52.220;13.000;2024-03-08T15:21:50;10.10;42.70